sensor_id;sensor_type;location;lat;lon;timestamp;pressure;altitude;pressure_sealevel;temperature;humidity
32875;BME280;40468;42.128;24.750;2022-12-20T00:01:28;102019.78;;;0.44;63.88
32875;BME280;40468;42.128;24.750;2022-12-20T00:02:59;102018.81;;;0.40;64.01
32875;BME280;40468;42.128;24.750;2022-12-20T00:04:31;102019.69;;;0.41;64.02
32875;BME280;40468;42.128;24.750;2022-12-20T00:06:04;102015.31;;;0.38;63.93
32875;BME280;40468;42.128;24.750;2022-12-20T00:07:35;102019.59;;;0.38;64.09
32875;BME280;40468;42.128;24.750;2022-12-20T00:09:09;102020.34;;;0.35;63.97
32875;BME280;40468;42.128;24.750;2022-12-20T00:10:44;102017.75;;;0.34;64.08
32875;BME280;40468;42.128;24.750;2022-12-20T00:12:16;102014.25;;;0.32;64.26
32875;BME280;40468;42.128;24.750;2022-12-20T00:13:48;102012.53;;;0.31;64.21
32875;BME280;40468;42.128;24.750;2022-12-20T00:15:19;102003.59;;;0.18;64.19
32875;BME280;40468;42.128;24.750;2022-12-20T00:16:51;102018.34;;;0.27;64.24
32875;BME280;40468;42.128;24.750;2022-12-20T00:18:22;102025.94;;;0.23;64.29
32875;BME280;40468;42.128;24.750;2022-12-20T00:19:54;102020.81;;;0.23;64.28
32875;BME280;40468;42.128;24.750;2022-12-20T00:21:26;102013.97;;;0.22;64.42
32875;BME280;40468;42.128;24.750;2022-12-20T00:22:58;102008.72;;;0.18;64.55
32875;BME280;40468;42.128;24.750;2022-12-20T00:24:32;102007.13;;;0.21;64.65
32875;BME280;40468;42.128;24.750;2022-12-20T00:26:05;102012.25;;;0.21;64.86
32875;BME280;40468;42.128;24.750;2022-12-20T00:27:38;102009.69;;;0.21;64.73
32875;BME280;40468;42.128;24.750;2022-12-20T00:29:10;102006.25;;;0.21;65.03
32875;BME280;40468;42.128;24.750;2022-12-20T00:30:41;102001.88;;;0.18;64.89
32875;BME280;40468;42.128;24.750;2022-12-20T00:32:13;102008.91;;;0.24;64.87
32875;BME280;40468;42.128;24.750;2022-12-20T00:33:47;102006.28;;;0.22;64.92
32875;BME280;40468;42.128;24.750;2022-12-20T00:35:19;102007.97;;;0.22;64.86
32875;BME280;40468;42.128;24.750;2022-12-20T00:36:51;102002.69;;;0.17;64.87
32875;BME280;40468;42.128;24.750;2022-12-20T00:38:24;102013.84;;;0.18;65.06
32875;BME280;40468;42.128;24.750;2022-12-20T00:39:57;102013.72;;;0.15;65.24
32875;BME280;40468;42.128;24.750;2022-12-20T00:41:30;102012.59;;;0.07;65.24
32875;BME280;40468;42.128;24.750;2022-12-20T00:43:02;102016.13;;;0.10;65.33
32875;BME280;40468;42.128;24.750;2022-12-20T00:44:35;102015.31;;;0.11;65.42
32875;BME280;40468;42.128;24.750;2022-12-20T00:46:08;102017.81;;;0.10;65.40
32875;BME280;40468;42.128;24.750;2022-12-20T00:47:40;101987.34;;;-0.08;65.48
32875;BME280;40468;42.128;24.750;2022-12-20T00:49:12;102016.06;;;0.09;65.50
32875;BME280;40468;42.128;24.750;2022-12-20T00:50:45;102014.19;;;0.03;65.75
32875;BME280;40468;42.128;24.750;2022-12-20T00:52:16;102002.06;;;-0.03;66.05
32875;BME280;40468;42.128;24.750;2022-12-20T00:53:48;102015.00;;;0.02;65.99
32875;BME280;40468;42.128;24.750;2022-12-20T00:55:21;102008.25;;;0.04;66.24
32875;BME280;40468;42.128;24.750;2022-12-20T00:56:53;102003.78;;;-0.02;66.32
32875;BME280;40468;42.128;24.750;2022-12-20T00:58:25;101999.44;;;-0.04;66.63
32875;BME280;40468;42.128;24.750;2022-12-20T00:59:56;101972.47;;;-0.18;66.86
32875;BME280;40468;42.128;24.750;2022-12-20T01:01:29;101992.47;;;-0.08;67.06
32875;BME280;40468;42.128;24.750;2022-12-20T01:03:01;101999.53;;;-0.01;66.93
32875;BME280;40468;42.128;24.750;2022-12-20T01:04:32;101997.81;;;-0.02;67.19
32875;BME280;40468;42.128;24.750;2022-12-20T01:06:04;101993.38;;;-0.06;67.39
32875;BME280;40468;42.128;24.750;2022-12-20T01:07:36;101997.63;;;-0.07;67.63
32875;BME280;40468;42.128;24.750;2022-12-20T01:09:09;101991.59;;;-0.09;67.76
32875;BME280;40468;42.128;24.750;2022-12-20T01:10:42;101987.28;;;-0.10;68.00
32875;BME280;40468;42.128;24.750;2022-12-20T01:12:13;101994.97;;;-0.10;68.03
32875;BME280;40468;42.128;24.750;2022-12-20T01:13:47;101997.50;;;-0.11;68.28
32875;BME280;40468;42.128;24.750;2022-12-20T01:15:19;101990.59;;;-0.12;68.37
32875;BME280;40468;42.128;24.750;2022-12-20T01:16:51;101989.72;;;-0.14;68.61
32875;BME280;40468;42.128;24.750;2022-12-20T01:18:23;101974.94;;;-0.21;68.67
32875;BME280;40468;42.128;24.750;2022-12-20T01:19:55;101976.81;;;-0.17;68.70
32875;BME280;40468;42.128;24.750;2022-12-20T01:21:27;101830.22;;;-1.12;68.67
32875;BME280;40468;42.128;24.750;2022-12-20T01:23:00;101989.59;;;-0.17;68.73
32875;BME280;40468;42.128;24.750;2022-12-20T01:24:31;101984.41;;;-0.19;68.84
32875;BME280;40468;42.128;24.750;2022-12-20T01:26:06;101966.34;;;-0.24;68.93
32875;BME280;40468;42.128;24.750;2022-12-20T01:27:38;101975.88;;;-0.19;68.73
32875;BME280;40468;42.128;24.750;2022-12-20T01:29:10;101967.13;;;-0.26;68.77
32875;BME280;40468;42.128;24.750;2022-12-20T01:30:43;101963.69;;;-0.27;68.84
32875;BME280;40468;42.128;24.750;2022-12-20T01:32:14;101957.56;;;-0.30;68.88
32875;BME280;40468;42.128;24.750;2022-12-20T01:33:47;101974.06;;;-0.22;68.95
32875;BME280;40468;42.128;24.750;2022-12-20T01:35:18;101964.66;;;-0.23;68.98
32875;BME280;40468;42.128;24.750;2022-12-20T01:36:50;101955.94;;;-0.28;69.17
32875;BME280;40468;42.128;24.750;2022-12-20T01:38:22;101961.25;;;-0.24;69.21
32875;BME280;40468;42.128;24.750;2022-12-20T01:39:53;101941.41;;;-0.29;69.20
32875;BME280;40468;42.128;24.750;2022-12-20T01:41:28;101951.00;;;-0.24;69.07
32875;BME280;40468;42.128;24.750;2022-12-20T01:43:00;101951.69;;;-0.28;69.11
32875;BME280;40468;42.128;24.750;2022-12-20T01:44:57;101952.53;;;-0.29;69.13
32875;BME280;40468;42.128;24.750;2022-12-20T01:46:30;101877.56;;;-0.76;69.16
32875;BME280;40468;42.128;24.750;2022-12-20T01:48:03;101948.06;;;-0.34;69.45
32875;BME280;40468;42.128;24.750;2022-12-20T01:49:38;101952.25;;;-0.36;69.45
32875;BME280;40468;42.128;24.750;2022-12-20T01:51:10;101942.56;;;-0.45;69.48
32875;BME280;40468;42.128;24.750;2022-12-20T01:52:44;101954.66;;;-0.41;69.59
32875;BME280;40468;42.128;24.750;2022-12-20T01:54:20;101919.19;;;-0.56;69.41
32875;BME280;40468;42.128;24.750;2022-12-20T01:55:54;101947.00;;;-0.41;69.47
32875;BME280;40468;42.128;24.750;2022-12-20T01:57:31;101939.25;;;-0.42;69.59
32875;BME280;40468;42.128;24.750;2022-12-20T01:59:04;101938.31;;;-0.44;69.60
32875;BME280;40468;42.128;24.750;2022-12-20T02:00:37;101934.97;;;-0.43;69.63
32875;BME280;40468;42.128;24.750;2022-12-20T02:02:10;101942.66;;;-0.42;69.54
32875;BME280;40468;42.128;24.750;2022-12-20T02:03:43;101793.75;;;-1.32;69.46
32875;BME280;40468;42.128;24.750;2022-12-20T02:05:17;101936.47;;;-0.49;69.75
32875;BME280;40468;42.128;24.750;2022-12-20T02:06:50;101934.00;;;-0.47;69.44
32875;BME280;40468;42.128;24.750;2022-12-20T02:08:22;101943.50;;;-0.43;69.61
32875;BME280;40468;42.128;24.750;2022-12-20T02:09:55;101934.97;;;-0.43;69.38
32875;BME280;40468;42.128;24.750;2022-12-20T02:11:46;101934.13;;;-0.42;69.49
32875;BME280;40468;42.128;24.750;2022-12-20T02:13:29;101916.66;;;-0.54;69.46
32875;BME280;40468;42.128;24.750;2022-12-20T02:15:29;101928.91;;;-0.46;69.39
32875;BME280;40468;42.128;24.750;2022-12-20T02:17:08;101928.88;;;-0.47;69.46
32875;BME280;40468;42.128;24.750;2022-12-20T02:18:47;101925.28;;;-0.52;69.50
32875;BME280;40468;42.128;24.750;2022-12-20T02:20:46;101893.22;;;-0.66;69.19
32875;BME280;40468;42.128;24.750;2022-12-20T02:22:25;101801.53;;;-1.29;69.37
32875;BME280;40468;42.128;24.750;2022-12-20T02:24:24;101924.34;;;-0.54;69.31
32875;BME280;40468;42.128;24.750;2022-12-20T02:26:16;101920.84;;;-0.56;69.50
32875;BME280;40468;42.128;24.750;2022-12-20T02:27:59;101912.94;;;-0.64;69.66
32875;BME280;40468;42.128;24.750;2022-12-20T02:29:37;101930.28;;;-0.55;69.54
32875;BME280;40468;42.128;24.750;2022-12-20T02:31:12;101893.00;;;-0.73;69.58
32875;BME280;40468;42.128;24.750;2022-12-20T02:32:51;101915.72;;;-0.56;69.68
32875;BME280;40468;42.128;24.750;2022-12-20T02:34:27;101931.31;;;-0.50;69.62
32875;BME280;40468;42.128;24.750;2022-12-20T02:36:02;101840.84;;;-1.02;69.63
32875;BME280;40468;42.128;24.750;2022-12-20T02:37:34;101895.78;;;-0.66;69.50
32875;BME280;40468;42.128;24.750;2022-12-20T02:39:05;101926.31;;;-0.47;69.35
32875;BME280;40468;42.128;24.750;2022-12-20T02:40:39;101928.03;;;-0.46;69.40
32875;BME280;40468;42.128;24.750;2022-12-20T02:42:13;101925.47;;;-0.46;69.53
32875;BME280;40468;42.128;24.750;2022-12-20T02:43:48;101857.69;;;-0.83;69.55
32875;BME280;40468;42.128;24.750;2022-12-20T02:45:40;101908.22;;;-0.52;69.61
32875;BME280;40468;42.128;24.750;2022-12-20T02:47:16;101921.19;;;-0.47;69.40
32875;BME280;40468;42.128;24.750;2022-12-20T02:48:51;101812.34;;;-1.12;69.40
32875;BME280;40468;42.128;24.750;2022-12-20T02:50:29;101911.53;;;-0.54;69.45
32875;BME280;40468;42.128;24.750;2022-12-20T02:52:02;101918.53;;;-0.50;69.41
32875;BME280;40468;42.128;24.750;2022-12-20T02:53:34;101923.66;;;-0.50;69.48
32875;BME280;40468;42.128;24.750;2022-12-20T02:55:07;101850.41;;;-0.96;69.55
32875;BME280;40468;42.128;24.750;2022-12-20T02:56:42;101916.75;;;-0.51;69.59
32875;BME280;40468;42.128;24.750;2022-12-20T02:58:21;101919.31;;;-0.51;69.49
32875;BME280;40468;42.128;24.750;2022-12-20T03:00:02;101905.47;;;-0.58;69.53
32875;BME280;40468;42.128;24.750;2022-12-20T03:01:37;101912.47;;;-0.52;69.38
32875;BME280;40468;42.128;24.750;2022-12-20T03:03:11;101911.59;;;-0.53;69.49
32875;BME280;40468;42.128;24.750;2022-12-20T03:04:53;101914.00;;;-0.57;69.57
32875;BME280;40468;42.128;24.750;2022-12-20T03:06:26;101921.84;;;-0.53;69.49
32875;BME280;40468;42.128;24.750;2022-12-20T03:08:00;101908.78;;;-0.60;69.60
32875;BME280;40468;42.128;24.750;2022-12-20T03:09:34;101911.53;;;-0.54;69.48
32875;BME280;40468;42.128;24.750;2022-12-20T03:11:07;101908.88;;;-0.57;69.70
32875;BME280;40468;42.128;24.750;2022-12-20T03:12:39;101905.28;;;-0.62;69.52
32875;BME280;40468;42.128;24.750;2022-12-20T03:14:11;101895.00;;;-0.64;69.55
32875;BME280;40468;42.128;24.750;2022-12-20T03:15:42;101897.50;;;-0.65;69.65
32875;BME280;40468;42.128;24.750;2022-12-20T03:17:14;101880.94;;;-0.77;69.72
32875;BME280;40468;42.128;24.750;2022-12-20T03:18:47;101893.28;;;-0.65;69.75
32875;BME280;40468;42.128;24.750;2022-12-20T03:20:19;101884.59;;;-0.69;69.97
32875;BME280;40468;42.128;24.750;2022-12-20T03:21:51;101900.25;;;-0.61;69.81
32875;BME280;40468;42.128;24.750;2022-12-20T03:23:23;101747.06;;;-1.52;69.77
32875;BME280;40468;42.128;24.750;2022-12-20T03:24:55;101892.59;;;-0.59;69.74
32875;BME280;40468;42.128;24.750;2022-12-20T03:26:27;101895.97;;;-0.60;69.98
32875;BME280;40468;42.128;24.750;2022-12-20T03:27:59;101901.97;;;-0.60;69.87
32875;BME280;40468;42.128;24.750;2022-12-20T03:29:31;101891.59;;;-0.64;69.79
32875;BME280;40468;42.128;24.750;2022-12-20T03:31:02;101887.28;;;-0.65;69.93
32875;BME280;40468;42.128;24.750;2022-12-20T03:32:34;101883.72;;;-0.71;69.72
32875;BME280;40468;42.128;24.750;2022-12-20T03:34:08;101905.28;;;-0.62;69.98
32875;BME280;40468;42.128;24.750;2022-12-20T03:35:39;101894.84;;;-0.69;69.98
32875;BME280;40468;42.128;24.750;2022-12-20T03:37:11;101815.47;;;-1.21;69.92
32875;BME280;40468;42.128;24.750;2022-12-20T03:38:43;101906.94;;;-0.64;69.93
32875;BME280;40468;42.128;24.750;2022-12-20T03:40:15;101906.94;;;-0.64;69.82
32875;BME280;40468;42.128;24.750;2022-12-20T03:41:47;101909.53;;;-0.63;69.89
32875;BME280;40468;42.128;24.750;2022-12-20T03:43:19;101910.41;;;-0.62;69.90
32875;BME280;40468;42.128;24.750;2022-12-20T03:44:50;101912.16;;;-0.61;69.86
32875;BME280;40468;42.128;24.750;2022-12-20T03:46:22;101916.47;;;-0.60;69.83
32875;BME280;40468;42.128;24.750;2022-12-20T03:47:53;101914.81;;;-0.58;69.67
32875;BME280;40468;42.128;24.750;2022-12-20T03:49:27;101919.94;;;-0.58;69.71
32875;BME280;40468;42.128;24.750;2022-12-20T03:50:58;101917.19;;;-0.64;69.55
32875;BME280;40468;42.128;24.750;2022-12-20T03:52:30;101914.56;;;-0.66;69.59
32875;BME280;40468;42.128;24.750;2022-12-20T03:54:02;101915.59;;;-0.61;69.54
32875;BME280;40468;42.128;24.750;2022-12-20T03:55:34;101909.44;;;-0.66;69.42
32875;BME280;40468;42.128;24.750;2022-12-20T03:57:05;101899.97;;;-0.69;69.49
32875;BME280;40468;42.128;24.750;2022-12-20T03:58:37;101917.09;;;-0.66;69.46
32875;BME280;40468;42.128;24.750;2022-12-20T04:00:10;101923.06;;;-0.67;69.47
32875;BME280;40468;42.128;24.750;2022-12-20T04:01:42;101880.50;;;-0.89;69.51
32875;BME280;40468;42.128;24.750;2022-12-20T04:03:14;101909.97;;;-0.75;69.40
32875;BME280;40468;42.128;24.750;2022-12-20T04:04:46;101915.22;;;-0.72;69.39
32875;BME280;40468;42.128;24.750;2022-12-20T04:06:18;101917.50;;;-0.79;69.37
32875;BME280;40468;42.128;24.750;2022-12-20T04:07:50;101914.09;;;-0.80;69.63
32875;BME280;40468;42.128;24.750;2022-12-20T04:09:21;101908.72;;;-0.86;69.48
32875;BME280;40468;42.128;24.750;2022-12-20T04:10:53;101905.38;;;-0.85;69.55
32875;BME280;40468;42.128;24.750;2022-12-20T04:12:42;101915.66;;;-0.83;69.76
32875;BME280;40468;42.128;24.750;2022-12-20T04:14:14;101913.97;;;-0.83;69.51
32875;BME280;40468;42.128;24.750;2022-12-20T04:15:46;101920.66;;;-0.86;69.44
32875;BME280;40468;42.128;24.750;2022-12-20T04:17:18;101918.81;;;-0.90;69.25
32875;BME280;40468;42.128;24.750;2022-12-20T04:18:50;101915.22;;;-0.96;69.61
32875;BME280;40468;42.128;24.750;2022-12-20T04:20:23;101905.00;;;-0.96;69.58
32875;BME280;40468;42.128;24.750;2022-12-20T04:21:55;101916.03;;;-0.97;69.69
32875;BME280;40468;42.128;24.750;2022-12-20T04:23:28;101768.75;;;-1.88;69.78
32875;BME280;40468;42.128;24.750;2022-12-20T04:24:59;101924.81;;;-0.90;69.63
32875;BME280;40468;42.128;24.750;2022-12-20T04:26:31;101917.84;;;-0.94;69.56
32875;BME280;40468;42.128;24.750;2022-12-20T04:28:01;101918.72;;;-0.94;69.64
32875;BME280;40468;42.128;24.750;2022-12-20T04:29:33;101914.56;;;-0.90;69.78
32875;BME280;40468;42.128;24.750;2022-12-20T04:31:05;101918.81;;;-0.90;69.87
32875;BME280;40468;42.128;24.750;2022-12-20T04:32:36;101922.25;;;-0.90;69.82
32875;BME280;40468;42.128;24.750;2022-12-20T04:34:08;101913.41;;;-0.98;69.76
32875;BME280;40468;42.128;24.750;2022-12-20T04:35:41;101902.06;;;-1.06;69.96
32875;BME280;40468;42.128;24.750;2022-12-20T04:37:12;101886.72;;;-1.06;69.94
32875;BME280;40468;42.128;24.750;2022-12-20T04:38:44;101894.53;;;-1.02;69.66
32875;BME280;40468;42.128;24.750;2022-12-20T04:40:16;101922.97;;;-0.94;69.97
32875;BME280;40468;42.128;24.750;2022-12-20T04:41:48;101923.94;;;-0.90;70.14
32875;BME280;40468;42.128;24.750;2022-12-20T04:43:22;101915.22;;;-0.96;69.93
32875;BME280;40468;42.128;24.750;2022-12-20T04:44:54;101916.91;;;-0.96;70.08
32875;BME280;40468;42.128;24.750;2022-12-20T04:46:26;101922.25;;;-0.90;70.22
32875;BME280;40468;42.128;24.750;2022-12-20T04:47:58;101924.75;;;-0.92;69.93
32875;BME280;40468;42.128;24.750;2022-12-20T04:49:29;101915.28;;;-0.94;70.04
32875;BME280;40468;42.128;24.750;2022-12-20T04:51:02;101920.50;;;-0.91;70.14
32875;BME280;40468;42.128;24.750;2022-12-20T04:52:33;101915.19;;;-0.97;69.95
32875;BME280;40468;42.128;24.750;2022-12-20T04:54:25;101919.47;;;-0.96;70.11
32875;BME280;40468;42.128;24.750;2022-12-20T04:55:57;101922.84;;;-0.97;70.05
32875;BME280;40468;42.128;24.750;2022-12-20T04:57:27;101881.03;;;-1.22;70.00
32875;BME280;40468;42.128;24.750;2022-12-20T04:58:59;101914.13;;;-1.02;69.82
32875;BME280;40468;42.128;24.750;2022-12-20T05:00:32;101912.34;;;-1.05;69.81
32875;BME280;40468;42.128;24.750;2022-12-20T05:02:03;101923.38;;;-1.06;69.83
32875;BME280;40468;42.128;24.750;2022-12-20T05:03:35;101915.66;;;-1.07;69.88
32875;BME280;40468;42.128;24.750;2022-12-20T05:05:07;101908.81;;;-1.08;69.87
32875;BME280;40468;42.128;24.750;2022-12-20T05:06:40;101913.97;;;-1.07;69.79
32875;BME280;40468;42.128;24.750;2022-12-20T05:08:12;101911.34;;;-1.08;70.06
32875;BME280;40468;42.128;24.750;2022-12-20T05:09:44;101907.97;;;-1.07;70.05
32875;BME280;40468;42.128;24.750;2022-12-20T05:11:16;101907.09;;;-1.08;70.11
32875;BME280;40468;42.128;24.750;2022-12-20T05:12:48;101897.59;;;-1.12;70.18
32875;BME280;40468;42.128;24.750;2022-12-20T05:14:20;101902.00;;;-1.08;70.02
32875;BME280;40468;42.128;24.750;2022-12-20T05:15:52;101896.84;;;-1.09;70.15
32875;BME280;40468;42.128;24.750;2022-12-20T05:17:24;101904.44;;;-1.11;70.20
32875;BME280;40468;42.128;24.750;2022-12-20T05:18:55;101891.47;;;-1.16;70.27
32875;BME280;40468;42.128;24.750;2022-12-20T05:20:28;101897.63;;;-1.10;70.33
32875;BME280;40468;42.128;24.750;2022-12-20T05:22:02;101891.66;;;-1.11;70.51
32875;BME280;40468;42.128;24.750;2022-12-20T05:23:51;101894.16;;;-1.12;70.67
32875;BME280;40468;42.128;24.750;2022-12-20T05:25:43;101888.06;;;-1.16;70.66
32875;BME280;40468;42.128;24.750;2022-12-20T05:27:33;101898.28;;;-1.16;70.63
32875;BME280;40468;42.128;24.750;2022-12-20T05:29:05;101900.84;;;-1.16;70.61
32875;BME280;40468;42.128;24.750;2022-12-20T05:30:37;101887.03;;;-1.21;70.83
32875;BME280;40468;42.128;24.750;2022-12-20T05:32:08;101894.94;;;-1.15;70.81
32875;BME280;40468;42.128;24.750;2022-12-20T05:33:40;101884.53;;;-1.20;70.83
32875;BME280;40468;42.128;24.750;2022-12-20T05:35:10;101894.16;;;-1.12;70.80
32875;BME280;40468;42.128;24.750;2022-12-20T05:36:42;101887.91;;;-1.21;70.85
32875;BME280;40468;42.128;24.750;2022-12-20T05:38:16;101893.34;;;-1.11;70.85
32875;BME280;40468;42.128;24.750;2022-12-20T05:39:46;101880.38;;;-1.16;70.78
32875;BME280;40468;42.128;24.750;2022-12-20T05:41:19;101894.16;;;-1.12;70.88
32875;BME280;40468;42.128;24.750;2022-12-20T05:42:51;101894.16;;;-1.12;70.90
32875;BME280;40468;42.128;24.750;2022-12-20T05:44:22;101888.94;;;-1.16;70.84
32875;BME280;40468;42.128;24.750;2022-12-20T05:45:54;101892.41;;;-1.13;71.04
32875;BME280;40468;42.128;24.750;2022-12-20T05:47:26;101890.03;;;-1.09;71.19
32875;BME280;40468;42.128;24.750;2022-12-20T05:48:58;101881.94;;;-1.21;71.18
32875;BME280;40468;42.128;24.750;2022-12-20T05:50:30;101898.63;;;-1.07;71.18
32875;BME280;40468;42.128;24.750;2022-12-20T05:52:02;101892.72;;;-1.06;71.13
32875;BME280;40468;42.128;24.750;2022-12-20T05:53:36;101889.19;;;-1.09;71.30
32875;BME280;40468;42.128;24.750;2022-12-20T05:55:07;101895.94;;;-1.10;71.14
32875;BME280;40468;42.128;24.750;2022-12-20T05:56:38;101891.66;;;-1.11;71.20
32875;BME280;40468;42.128;24.750;2022-12-20T05:58:10;101896.84;;;-1.09;71.30
32875;BME280;40468;42.128;24.750;2022-12-20T05:59:43;101899.41;;;-1.09;71.26
32875;BME280;40468;42.128;24.750;2022-12-20T06:01:15;101885.81;;;-1.07;71.46
32875;BME280;40468;42.128;24.750;2022-12-20T06:02:47;101897.00;;;-1.05;71.39
32875;BME280;40468;42.128;24.750;2022-12-20T06:04:18;101885.06;;;-1.04;71.46
32875;BME280;40468;42.128;24.750;2022-12-20T06:05:50;101894.53;;;-1.02;71.53
32875;BME280;40468;42.128;24.750;2022-12-20T06:07:22;101888.47;;;-1.05;71.48
32875;BME280;40468;42.128;24.750;2022-12-20T06:08:55;101899.75;;;-0.99;71.78
32875;BME280;40468;42.128;24.750;2022-12-20T06:10:27;101898.06;;;-0.98;71.74
32875;BME280;40468;42.128;24.750;2022-12-20T06:11:59;101884.31;;;-1.02;71.92
32875;BME280;40468;42.128;24.750;2022-12-20T06:13:31;101898.25;;;-0.94;72.07
32875;BME280;40468;42.128;24.750;2022-12-20T06:15:03;101893.38;;;-0.86;72.08
32875;BME280;40468;42.128;24.750;2022-12-20T06:16:35;101860.44;;;-1.02;72.28
32875;BME280;40468;42.128;24.750;2022-12-20T06:18:07;101893.84;;;-0.74;72.22
32875;BME280;40468;42.128;24.750;2022-12-20T06:19:39;101884.78;;;-0.64;72.22
32875;BME280;40468;42.128;24.750;2022-12-20T06:21:11;101898.94;;;-0.48;72.20
32875;BME280;40468;42.128;24.750;2022-12-20T06:22:43;101894.91;;;-0.41;72.05
32875;BME280;40468;42.128;24.750;2022-12-20T06:24:17;101898.69;;;-0.30;72.04
32875;BME280;40468;42.128;24.750;2022-12-20T06:25:48;101898.03;;;-0.25;71.89
32875;BME280;40468;42.128;24.750;2022-12-20T06:27:20;101901.66;;;-0.18;71.77
32875;BME280;40468;42.128;24.750;2022-12-20T06:28:53;101902.00;;;-0.07;71.70
32875;BME280;40468;42.128;24.750;2022-12-20T06:30:26;101902.28;;;0.02;71.56
32875;BME280;40468;42.128;24.750;2022-12-20T06:31:58;101898.28;;;0.10;71.29
32875;BME280;40468;42.128;24.750;2022-12-20T06:33:29;101892.31;;;0.11;71.30
32875;BME280;40468;42.128;24.750;2022-12-20T06:35:01;101903.88;;;0.26;71.17
32875;BME280;40468;42.128;24.750;2022-12-20T06:36:32;101892.94;;;0.31;71.06
32875;BME280;40468;42.128;24.750;2022-12-20T06:38:04;101900.28;;;0.48;71.08
32875;BME280;40468;42.128;24.750;2022-12-20T06:39:37;101867.66;;;0.42;70.89
32875;BME280;40468;42.128;24.750;2022-12-20T06:41:09;101894.06;;;0.70;70.74
32875;BME280;40468;42.128;24.750;2022-12-20T06:42:42;101888.09;;;0.71;70.60
32875;BME280;40468;42.128;24.750;2022-12-20T06:44:14;101898.00;;;0.87;70.28
32875;BME280;40468;42.128;24.750;2022-12-20T06:45:46;101898.25;;;0.96;70.06
32875;BME280;40468;42.128;24.750;2022-12-20T06:47:18;101896.00;;;1.07;69.85
32875;BME280;40468;42.128;24.750;2022-12-20T06:48:50;101890.25;;;1.16;69.56
32875;BME280;40468;42.128;24.750;2022-12-20T06:50:22;101892.03;;;1.20;69.48
32875;BME280;40468;42.128;24.750;2022-12-20T06:51:54;101892.22;;;1.26;69.15
32875;BME280;40468;42.128;24.750;2022-12-20T06:53:25;101891.56;;;1.34;69.02
32875;BME280;40468;42.128;24.750;2022-12-20T06:54:58;101890.19;;;1.47;68.81
32875;BME280;40468;42.128;24.750;2022-12-20T06:56:29;101899.88;;;1.57;68.79
32875;BME280;40468;42.128;24.750;2022-12-20T06:58:02;101889.06;;;1.71;68.80
32875;BME280;40468;42.128;24.750;2022-12-20T06:59:34;101885.22;;;1.88;68.53
32875;BME280;40468;42.128;24.750;2022-12-20T07:01:06;101884.75;;;2.04;68.08
32875;BME280;40468;42.128;24.750;2022-12-20T07:02:38;101883.13;;;2.10;67.63
32875;BME280;40468;42.128;24.750;2022-12-20T07:04:10;101893.72;;;2.22;67.36
32875;BME280;40468;42.128;24.750;2022-12-20T07:05:42;101896.44;;;2.30;67.02
32875;BME280;40468;42.128;24.750;2022-12-20T07:07:13;101890.63;;;2.37;66.81
32875;BME280;40468;42.128;24.750;2022-12-20T07:08:46;101893.47;;;2.50;66.62
32875;BME280;40468;42.128;24.750;2022-12-20T07:10:19;101877.50;;;2.65;66.45
32875;BME280;40468;42.128;24.750;2022-12-20T07:11:51;101894.38;;;2.93;66.12
32875;BME280;40468;42.128;24.750;2022-12-20T07:13:23;101887.97;;;3.18;65.72
32875;BME280;40468;42.128;24.750;2022-12-20T07:14:55;101876.31;;;3.37;65.25
32875;BME280;40468;42.128;24.750;2022-12-20T07:16:27;101882.84;;;3.69;64.50
32875;BME280;40468;42.128;24.750;2022-12-20T07:17:58;101876.19;;;3.84;63.61
32875;BME280;40468;42.128;24.750;2022-12-20T07:19:30;101885.19;;;4.09;62.84
32875;BME280;40468;42.128;24.750;2022-12-20T07:21:03;101880.41;;;4.37;62.46
32875;BME280;40468;42.128;24.750;2022-12-20T07:22:35;101878.22;;;4.66;61.74
32875;BME280;40468;42.128;24.750;2022-12-20T07:24:07;101888.03;;;4.95;60.62
32875;BME280;40468;42.128;24.750;2022-12-20T07:25:41;101876.97;;;5.08;59.19
32875;BME280;40468;42.128;24.750;2022-12-20T07:27:13;101878.88;;;5.24;58.75
32875;BME280;40468;42.128;24.750;2022-12-20T07:28:45;101883.38;;;5.47;58.24
32875;BME280;40468;42.128;24.750;2022-12-20T07:30:17;101880.13;;;5.65;57.40
32875;BME280;40468;42.128;24.750;2022-12-20T07:31:49;101879.38;;;5.80;57.55
32875;BME280;40468;42.128;24.750;2022-12-20T07:33:22;101851.97;;;6.02;56.91
32875;BME280;40468;42.128;24.750;2022-12-20T07:34:53;101869.44;;;6.40;56.16
32875;BME280;40468;42.128;24.750;2022-12-20T07:36:25;101826.28;;;6.38;55.49
32875;BME280;40468;42.128;24.750;2022-12-20T07:37:57;101848.91;;;6.75;54.72
32875;BME280;40468;42.128;24.750;2022-12-20T07:39:29;101866.25;;;7.02;54.25
32875;BME280;40468;42.128;24.750;2022-12-20T07:41:07;101806.63;;;6.91;53.67
32875;BME280;40468;42.128;24.750;2022-12-20T07:42:39;101847.28;;;7.47;53.56
32875;BME280;40468;42.128;24.750;2022-12-20T07:44:11;101852.47;;;7.69;52.50
32875;BME280;40468;42.128;24.750;2022-12-20T07:45:42;101853.31;;;7.97;52.02
32875;BME280;40468;42.128;24.750;2022-12-20T07:47:14;101845.47;;;8.18;51.71
32875;BME280;40468;42.128;24.750;2022-12-20T07:48:46;101842.88;;;8.43;51.19
32875;BME280;40468;42.128;24.750;2022-12-20T07:50:18;101849.69;;;8.65;50.50
32875;BME280;40468;42.128;24.750;2022-12-20T07:51:52;101852.25;;;8.76;49.42
32875;BME280;40468;42.128;24.750;2022-12-20T07:53:27;101841.91;;;8.67;48.39
32875;BME280;40468;42.128;24.750;2022-12-20T07:55:00;101849.69;;;8.70;48.75
32875;BME280;40468;42.128;24.750;2022-12-20T07:56:35;101844.50;;;8.67;48.65
32875;BME280;40468;42.128;24.750;2022-12-20T07:58:10;101792.59;;;8.53;49.15
32875;BME280;40468;42.128;24.750;2022-12-20T07:59:48;101854.72;;;8.98;47.89
32875;BME280;40468;42.128;24.750;2022-12-20T08:01:21;101845.22;;;8.97;47.63
32875;BME280;40468;42.128;24.750;2022-12-20T08:02:56;101849.53;;;8.98;46.94
32875;BME280;40468;42.128;24.750;2022-12-20T08:04:30;101844.38;;;8.88;46.82